sensor_id;sensor_type;location;lat;lon;timestamp;P1;durP1;ratioP1;P2;durP2;ratioP2
80840;SDS011;70254;49.200;-122.910;2023-06-24T00:54:53;4.38;;;3.90;;
80840;SDS011;70254;49.200;-122.910;2023-06-24T00:57:30;5.68;;;3.60;;
80840;SDS011;70254;49.200;-122.910;2023-06-24T01:16:16;4.90;;;4.15;;
80840;SDS011;70254;49.200;-122.910;2023-06-24T01:19:03;5.47;;;4.38;;
80840;SDS011;70254;49.200;-122.910;2023-06-24T02:01:54;5.90;;;4.05;;
80840;SDS011;70254;49.200;-122.910;2023-06-24T02:40:51;5.30;;;4.10;;
80840;SDS011;70254;49.200;-122.910;2023-06-24T02:43:48;6.00;;;4.00;;
80840;SDS011;70254;49.200;-122.910;2023-06-24T02:46:21;5.53;;;4.68;;
80840;SDS011;70254;49.200;-122.910;2023-06-24T02:49:13;6.82;;;4.13;;
80840;SDS011;70254;49.200;-122.910;2023-06-24T03:31:21;7.25;;;4.38;;
80840;SDS011;70254;49.200;-122.910;2023-06-24T03:33:48;5.50;;;4.55;;
80840;SDS011;70254;49.200;-122.910;2023-06-24T03:36:24;5.30;;;4.25;;
80840;SDS011;70254;49.200;-122.910;2023-06-24T03:39:06;5.80;;;4.40;;
80840;SDS011;70254;49.200;-122.910;2023-06-24T03:41:46;7.18;;;4.53;;
80840;SDS011;70254;49.200;-122.910;2023-06-24T03:44:16;5.75;;;4.35;;
80840;SDS011;70254;49.200;-122.910;2023-06-24T03:46:45;4.38;;;3.78;;
80840;SDS011;70254;49.200;-122.910;2023-06-24T03:49:18;7.25;;;4.70;;
80840;SDS011;70254;49.200;-122.910;2023-06-24T03:51:52;7.07;;;4.20;;
80840;SDS011;70254;49.200;-122.910;2023-06-24T03:54:24;6.45;;;4.18;;
80840;SDS011;70254;49.200;-122.910;2023-06-24T03:56:51;5.50;;;4.32;;
80840;SDS011;70254;49.200;-122.910;2023-06-24T03:59:20;8.80;;;4.20;;
80840;SDS011;70254;49.200;-122.910;2023-06-24T04:01:51;5.20;;;4.20;;
80840;SDS011;70254;49.200;-122.910;2023-06-24T04:04:25;7.20;;;4.05;;
80840;SDS011;70254;49.200;-122.910;2023-06-24T04:17:53;6.40;;;4.53;;
80840;SDS011;70254;49.200;-122.910;2023-06-24T04:22:53;5.55;;;4.38;;
80840;SDS011;70254;49.200;-122.910;2023-06-24T04:25:21;6.35;;;4.50;;
80840;SDS011;70254;49.200;-122.910;2023-06-24T04:27:51;6.63;;;4.28;;
80840;SDS011;70254;49.200;-122.910;2023-06-24T04:30:25;6.88;;;4.22;;
80840;SDS011;70254;49.200;-122.910;2023-06-24T04:33:02;5.78;;;4.57;;
80840;SDS011;70254;49.200;-122.910;2023-06-24T04:35:32;6.82;;;4.20;;
80840;SDS011;70254;49.200;-122.910;2023-06-24T04:37:59;6.63;;;4.13;;
80840;SDS011;70254;49.200;-122.910;2023-06-24T04:40:29;5.95;;;5.07;;
80840;SDS011;70254;49.200;-122.910;2023-06-24T04:43:01;6.78;;;4.25;;
80840;SDS011;70254;49.200;-122.910;2023-06-24T04:45:28;6.35;;;4.68;;
80840;SDS011;70254;49.200;-122.910;2023-06-24T04:48:01;5.28;;;4.05;;
80840;SDS011;70254;49.200;-122.910;2023-06-24T04:50:34;7.30;;;4.63;;
80840;SDS011;70254;49.200;-122.910;2023-06-24T04:53:00;6.72;;;4.63;;
80840;SDS011;70254;49.200;-122.910;2023-06-24T04:55:33;7.10;;;4.75;;
80840;SDS011;70254;49.200;-122.910;2023-06-24T04:58:01;6.43;;;5.03;;
80840;SDS011;70254;49.200;-122.910;2023-06-24T05:00:34;8.32;;;5.00;;
80840;SDS011;70254;49.200;-122.910;2023-06-24T05:03:00;6.05;;;4.50;;
80840;SDS011;70254;49.200;-122.910;2023-06-24T05:05:31;7.80;;;5.10;;
80840;SDS011;70254;49.200;-122.910;2023-06-24T05:08:06;7.90;;;4.50;;
80840;SDS011;70254;49.200;-122.910;2023-06-24T05:10:36;8.32;;;4.63;;
80840;SDS011;70254;49.200;-122.910;2023-06-24T05:13:08;7.05;;;5.30;;
80840;SDS011;70254;49.200;-122.910;2023-06-24T05:18:10;4.95;;;4.03;;
80840;SDS011;70254;49.200;-122.910;2023-06-24T05:20:40;6.95;;;4.65;;
80840;SDS011;70254;49.200;-122.910;2023-06-24T05:23:09;9.30;;;6.88;;
80840;SDS011;70254;49.200;-122.910;2023-06-24T05:25:39;7.72;;;5.38;;
80840;SDS011;70254;49.200;-122.910;2023-06-24T05:28:12;11.35;;;5.45;;
80840;SDS011;70254;49.200;-122.910;2023-06-24T05:30:44;8.05;;;5.47;;
80840;SDS011;70254;49.200;-122.910;2023-06-24T05:33:21;10.20;;;6.53;;
80840;SDS011;70254;49.200;-122.910;2023-06-24T05:35:51;7.22;;;5.40;;
80840;SDS011;70254;49.200;-122.910;2023-06-24T05:38:18;7.32;;;5.05;;
80840;SDS011;70254;49.200;-122.910;2023-06-24T05:40:51;6.40;;;4.80;;
80840;SDS011;70254;49.200;-122.910;2023-06-24T05:43:18;10.00;;;5.07;;
80840;SDS011;70254;49.200;-122.910;2023-06-24T05:45:51;11.85;;;4.60;;
80840;SDS011;70254;49.200;-122.910;2023-06-24T05:48:30;7.28;;;5.38;;
80840;SDS011;70254;49.200;-122.910;2023-06-24T05:51:06;7.60;;;4.90;;
80840;SDS011;70254;49.200;-122.910;2023-06-24T05:53:44;10.10;;;4.57;;
80840;SDS011;70254;49.200;-122.910;2023-06-24T05:56:29;8.40;;;4.97;;
80840;SDS011;70254;49.200;-122.910;2023-06-24T06:01:51;6.05;;;4.53;;
80840;SDS011;70254;49.200;-122.910;2023-06-24T13:44:51;4.15;;;3.10;;
80840;SDS011;70254;49.200;-122.910;2023-06-24T13:47:21;9.55;;;3.50;;
80840;SDS011;70254;49.200;-122.910;2023-06-24T13:49:57;8.15;;;2.58;;
80840;SDS011;70254;49.200;-122.910;2023-06-24T13:52:42;5.82;;;2.78;;
80840;SDS011;70254;49.200;-122.910;2023-06-24T13:55:12;6.65;;;3.00;;
80840;SDS011;70254;49.200;-122.910;2023-06-24T13:57:38;4.28;;;2.63;;
80840;SDS011;70254;49.200;-122.910;2023-06-24T14:00:15;5.45;;;3.13;;
80840;SDS011;70254;49.200;-122.910;2023-06-24T14:02:42;7.57;;;3.60;;
80840;SDS011;70254;49.200;-122.910;2023-06-24T14:05:12;5.78;;;3.55;;
80840;SDS011;70254;49.200;-122.910;2023-06-24T14:29:33;6.90;;;3.15;;
80840;SDS011;70254;49.200;-122.910;2023-06-24T14:32:04;4.65;;;2.80;;
80840;SDS011;70254;49.200;-122.910;2023-06-24T14:34:35;4.60;;;2.70;;
80840;SDS011;70254;49.200;-122.910;2023-06-24T14:37:11;9.13;;;3.53;;
80840;SDS011;70254;49.200;-122.910;2023-06-24T14:39:41;9.30;;;3.88;;
80840;SDS011;70254;49.200;-122.910;2023-06-24T14:42:11;6.18;;;3.58;;
80840;SDS011;70254;49.200;-122.910;2023-06-24T14:44:40;7.53;;;3.53;;
80840;SDS011;70254;49.200;-122.910;2023-06-24T14:47:07;4.97;;;3.13;;
80840;SDS011;70254;49.200;-122.910;2023-06-24T15:24:24;7.03;;;3.25;;
80840;SDS011;70254;49.200;-122.910;2023-06-24T15:27:04;7.13;;;3.40;;
80840;SDS011;70254;49.200;-122.910;2023-06-24T15:29:34;6.65;;;3.80;;
80840;SDS011;70254;49.200;-122.910;2023-06-24T15:32:07;6.93;;;3.33;;
80840;SDS011;70254;49.200;-122.910;2023-06-24T15:37:02;5.43;;;3.00;;
80840;SDS011;70254;49.200;-122.910;2023-06-24T15:46:32;8.40;;;3.17;;
80840;SDS011;70254;49.200;-122.910;2023-06-24T15:49:26;7.38;;;3.65;;
80840;SDS011;70254;49.200;-122.910;2023-06-24T15:52:02;7.03;;;3.22;;
80840;SDS011;70254;49.200;-122.910;2023-06-24T15:54:54;7.30;;;4.00;;
80840;SDS011;70254;49.200;-122.910;2023-06-24T16:00:23;9.82;;;4.00;;
80840;SDS011;70254;49.200;-122.910;2023-06-24T16:02:52;7.68;;;3.65;;
80840;SDS011;70254;49.200;-122.910;2023-06-24T16:05:23;5.88;;;3.42;;
80840;SDS011;70254;49.200;-122.910;2023-06-24T16:07:53;8.02;;;3.83;;
80840;SDS011;70254;49.200;-122.910;2023-06-24T16:10:26;7.38;;;3.22;;
80840;SDS011;70254;49.200;-122.910;2023-06-24T16:29:46;5.00;;;2.70;;
80840;SDS011;70254;49.200;-122.910;2023-06-24T16:32:39;6.45;;;3.17;;
80840;SDS011;70254;49.200;-122.910;2023-06-24T16:35:27;5.50;;;2.85;;
80840;SDS011;70254;49.200;-122.910;2023-06-24T16:37:58;8.30;;;3.50;;
80840;SDS011;70254;49.200;-122.910;2023-06-24T16:40:31;8.55;;;3.50;;
80840;SDS011;70254;49.200;-122.910;2023-06-24T16:43:51;5.18;;;2.92;;
80840;SDS011;70254;49.200;-122.910;2023-06-24T16:46:25;4.85;;;2.70;;
80840;SDS011;70254;49.200;-122.910;2023-06-24T16:48:57;5.25;;;3.20;;
80840;SDS011;70254;49.200;-122.910;2023-06-24T16:51:51;6.20;;;3.20;;
80840;SDS011;70254;49.200;-122.910;2023-06-24T16:54:22;5.88;;;2.95;;
80840;SDS011;70254;49.200;-122.910;2023-06-24T16:56:59;4.95;;;3.05;;
80840;SDS011;70254;49.200;-122.910;2023-06-24T16:59:38;5.55;;;3.00;;
80840;SDS011;70254;49.200;-122.910;2023-06-24T17:17:47;6.20;;;2.80;;
80840;SDS011;70254;49.200;-122.910;2023-06-24T19:42:37;5.13;;;2.95;;
80840;SDS011;70254;49.200;-122.910;2023-06-24T20:37:50;5.32;;;3.88;;
80840;SDS011;70254;49.200;-122.910;2023-06-24T20:40:59;5.28;;;3.08;;
80840;SDS011;70254;49.200;-122.910;2023-06-24T20:43:45;9.95;;;3.72;;
80840;SDS011;70254;49.200;-122.910;2023-06-24T20:46:56;4.88;;;3.80;;
80840;SDS011;70254;49.200;-122.910;2023-06-24T20:50:09;5.60;;;3.40;;
80840;SDS011;70254;49.200;-122.910;2023-06-24T20:52:39;6.88;;;4.40;;
80840;SDS011;70254;49.200;-122.910;2023-06-24T23:40:34;5.60;;;3.38;;
80840;SDS011;70254;49.200;-122.910;2023-06-24T23:43:11;5.43;;;3.20;;
80840;SDS011;70254;49.200;-122.910;2023-06-24T23:45:54;4.15;;;3.30;;
80840;SDS011;70254;49.200;-122.910;2023-06-24T23:58:04;5.20;;;2.97;;
